Time;durP1;ratioP1;P1;durP2;ratioP2;P2;SDS_P1;SDS_P2;PMS_P1;PMS_P2;Temp;Humidity;BMP_temperature;BMP_pressure;BME280_temperature;BME280_humidity;BME280_pressure;Samples;Min_cycle;Max_cycle;Signal;HPM_P1;HPM_P2
2022/10/17 00:01:19;;;;;;;;;1.33;1.33;;;;;23.70;48.07;101178.59;5065232;27;48436;-72
2022/10/17 00:03:45;;;;;;;;;2.33;2.33;;;;;23.69;47.73;101179.59;5076932;27;45385;-72
2022/10/17 00:06:13;;;;;;;;;2.00;2.00;;;;;23.71;47.99;101183.72;5076732;27;45426;-73
2022/10/17 00:08:40;;;;;;;;;4.00;3.00;;;;;23.71;48.14;101178.41;5067224;27;46366;-72
2022/10/17 00:11:25;;;;;;;;;1.00;1.00;;;;;23.71;47.75;101181.06;5071770;27;45370;-73
2022/10/17 00:13:54;;;;;;;;;2.67;1.00;;;;;23.65;48.04;101168.53;5076188;27;45395;-73
2022/10/17 00:16:25;;;;;;;;;2.00;2.00;;;;;23.72;48.35;101182.72;5062513;27;45296;-73
2022/10/17 00:18:51;;;;;;;;;1.33;1.33;;;;;23.71;47.74;101177.59;5076323;27;45423;-72
2022/10/17 00:21:18;;;;;;;;;2.00;2.00;;;;;23.72;47.75;101189.88;5076012;28;45720;-72
2022/10/17 00:23:44;;;;;;;;;4.00;2.00;;;;;23.71;48.02;101189.03;5076569;27;45354;-72
2022/10/17 00:26:09;;;;;;;;;2.00;2.00;;;;;23.71;48.17;101199.66;5076559;27;45540;-73
2022/10/17 00:28:35;;;;;;;;;2.00;2.00;;;;;23.67;48.13;101186.94;5075383;27;46263;-73
2022/10/17 00:31:05;;;;;;;;;1.00;1.00;;;;;23.68;48.28;101185.94;5076439;27;45409;-72
2022/10/17 00:33:32;;;;;;;;;1.33;1.33;;;;;23.70;48.08;101182.09;5076288;27;45410;-72
2022/10/17 00:36:12;;;;;;;;;4.00;3.00;;;;;23.69;48.08;101175.13;5076014;27;45514;-72
2022/10/17 00:38:38;;;;;;;;;2.67;2.00;;;;;23.70;47.99;101187.41;5073709;27;46284;-72
2022/10/17 00:41:04;;;;;;;;;1.00;1.00;;;;;23.69;48.26;101196.38;5075982;27;45344;-72
2022/10/17 00:44:04;;;;;;;;;2.00;2.00;;;;;23.70;47.90;101208.66;5076021;27;45390;-73
2022/10/17 00:46:32;;;;;;;;;2.00;2.00;;;;;23.68;48.38;101223.13;5076022;27;45537;-73
2022/10/17 00:49:02;;;;;;;;;1.00;1.00;;;;;23.69;47.84;101222.09;5075489;27;47352;-72
2022/10/17 00:51:37;;;;;;;;;3.00;2.67;;;;;23.69;48.10;101222.94;5075793;27;45299;-73
2022/10/17 00:54:03;;;;;;;;;2.00;2.00;;;;;23.69;47.82;101198.19;5076056;27;45472;-73
2022/10/17 00:56:29;;;;;;;;;2.00;2.00;;;;;23.64;48.29;101177.50;5075818;27;45482;-72
2022/10/17 00:58:55;;;;;;;;;2.00;1.00;;;;;23.67;47.80;101189.59;5075620;27;46747;-73
2022/10/17 01:01:21;;;;;;;;;3.00;2.00;;;;;23.57;48.17;101192.53;5075860;27;45461;-72
2022/10/17 01:03:46;;;;;;;;;3.00;3.00;;;;;23.69;47.88;101243.34;5075787;27;45461;-73
2022/10/17 01:06:11;;;;;;;;;2.00;2.00;;;;;23.69;48.30;101264.59;5075910;27;45417;-72
2022/10/17 01:08:37;;;;;;;;;2.33;2.00;;;;;23.69;48.34;101272.56;5066681;27;47675;-73
2022/10/17 01:12:00;;;;;;;;;2.00;1.00;;;;;23.69;48.55;101261.94;5070103;27;45784;-73
2022/10/17 01:14:31;;;;;;;;;2.00;2.00;;;;;23.69;48.48;101248.66;5073323;28;45658;-73
2022/10/17 01:17:13;;;;;;;;;2.00;1.00;;;;;23.69;48.16;101246.84;5073290;28;45476;-72
2022/10/17 01:20:14;;;;;;;;;2.33;2.33;;;;;23.68;47.93;101258.47;5072972;27;47395;-73
2022/10/17 01:22:44;;;;;;;;;1.33;1.33;;;;;23.69;48.35;101268.09;5056156;28;45487;-72
2022/10/17 01:25:39;;;;;;;;;5.33;4.00;;;;;23.71;48.24;101286.50;5072573;28;45480;-73
2022/10/17 01:28:37;;;;;;;;;2.33;2.00;;;;;23.70;47.77;101279.56;5072890;28;45383;-72
2022/10/17 01:31:05;;;;;;;;;2.00;2.00;;;;;23.70;48.25;101271.59;5012575;28;45430;-73
2022/10/17 01:33:46;;;;;;;;;2.00;2.00;;;;;23.69;48.31;101280.53;5012428;28;45341;-72
2022/10/17 01:36:32;;;;;;;;;1.33;1.33;;;;;23.69;47.94;101273.41;5012591;28;45389;-72
2022/10/17 01:39:09;;;;;;;;;2.00;2.00;;;;;23.69;47.94;101278.72;5012503;28;45417;-72
2022/10/17 01:41:43;;;;;;;;;2.00;2.00;;;;;23.69;47.97;101269.91;5012348;28;46050;-73
2022/10/17 01:44:25;;;;;;;;;2.00;2.00;;;;;23.68;48.14;101261.13;5012564;28;45484;-72
2022/10/17 01:46:58;;;;;;;;;3.00;3.00;;;;;23.61;47.99;101250.41;5027982;28;45346;-72
2022/10/17 01:49:27;;;;;;;;;5.33;2.00;;;;;23.69;47.81;101269.91;5032486;28;45506;-72
2022/10/17 01:52:01;;;;;;;;;2.00;2.00;;;;;23.67;48.49;101264.81;5032307;28;46224;-72
2022/10/17 01:54:34;;;;;;;;;4.00;1.67;;;;;23.68;48.02;101263.78;5032173;28;45427;-72
2022/10/17 01:57:05;;;;;;;;;2.00;2.00;;;;;23.68;48.24;101255.00;5032561;28;45431;-72
2022/10/17 01:59:42;;;;;;;;;3.00;3.00;;;;;23.68;48.18;101249.69;5032353;28;45838;-73
2022/10/17 02:02:09;;;;;;;;;2.00;2.00;;;;;23.66;48.40;101238.41;5032099;28;46268;-73
2022/10/17 02:04:35;;;;;;;;;3.67;2.00;;;;;23.67;48.23;101240.91;5032310;28;45619;-72
2022/10/17 02:07:12;;;;;;;;;2.00;2.00;;;;;23.67;48.27;101243.56;5060191;28;45495;-73
2022/10/17 02:09:38;;;;;;;;;2.00;2.00;;;;;23.35;48.25;101184.41;5057490;28;45587;-72
2022/10/17 02:12:09;;;;;;;;;4.33;3.67;;;;;23.67;48.05;101230.28;5074705;27;46082;-72
2022/10/17 02:14:43;;;;;;;;;2.00;2.00;;;;;23.67;48.35;101235.59;5074719;27;45382;-72
2022/10/17 02:17:31;;;;;;;;;2.00;2.00;;;;;23.67;48.06;101222.31;5074896;27;45389;-72
2022/10/17 02:20:14;;;;;;;;;1.67;1.67;;;;;23.69;47.95;101232.72;5074423;27;45347;-72
2022/10/17 02:23:01;;;;;;;;;1.33;1.33;;;;;23.67;48.18;101219.66;5108556;27;47489;-73
2022/10/17 02:25:40;;;;;;;;;2.00;2.00;;;;;23.67;47.97;101227.63;5078202;27;45326;-72
2022/10/17 02:28:19;;;;;;;;;2.00;2.00;;;;;23.67;48.25;101230.28;5077903;27;45422;-72
2022/10/17 02:31:02;;;;;;;;;3.00;3.00;;;;;23.61;48.05;101215.88;5078320;27;45513;-72
2022/10/17 02:33:35;;;;;;;;;2.00;2.00;;;;;23.67;48.36;101235.59;5077718;27;46127;-72
2022/10/17 02:36:08;;;;;;;;;4.00;2.00;;;;;23.68;48.51;101239.06;5078181;27;45323;-72
2022/10/17 02:38:34;;;;;;;;;2.00;2.00;;;;;23.68;48.12;101245.19;5077309;27;45253;-72
2022/10/17 02:41:02;;;;;;;;;2.00;2.00;;;;;23.68;48.23;101249.69;5077989;27;45444;-72
2022/10/17 02:43:28;;;;;;;;;3.33;2.33;;;;;23.68;48.37;101247.84;5077621;27;46186;-72
2022/10/17 02:45:54;;;;;;;;;3.00;3.00;;;;;23.68;48.49;101239.06;5077892;27;45545;-72
2022/10/17 02:48:39;;;;;;;;;3.33;2.00;;;;;23.63;48.44;101229.78;5078143;27;46126;-73
2022/10/17 02:51:35;;;;;;;;;1.67;1.67;;;;;23.68;48.48;101239.88;5066267;27;45422;-72
2022/10/17 02:54:23;;;;;;;;;2.00;2.00;;;;;23.69;48.57;101246.00;5077416;27;46240;-72
2022/10/17 02:56:54;;;;;;;;;3.00;3.00;;;;;23.69;48.30;101235.38;5077568;27;45552;-72
2022/10/17 02:59:23;;;;;;;;;4.00;3.00;;;;;23.69;48.31;101230.91;5077646;27;45449;-72
2022/10/17 03:01:50;;;;;;;;;2.00;2.00;;;;;23.69;48.35;101216.78;5077591;27;45564;-72
2022/10/17 03:04:17;;;;;;;;;3.00;3.00;;;;;23.68;48.22;101210.66;5077352;27;47040;-72
2022/10/17 03:06:45;;;;;;;;;3.67;2.67;;;;;23.68;48.04;101212.50;5077072;27;45441;-72
2022/10/17 03:09:10;;;;;;;;;3.00;3.00;;;;;23.68;48.26;101225.78;5063850;27;45477;-72
2022/10/17 03:11:35;;;;;;;;;2.33;2.33;;;;;23.68;48.49;101223.94;5076923;27;45491;-73
2022/10/17 03:14:01;;;;;;;;;2.00;2.00;;;;;23.68;48.49;101223.13;5109890;27;57350;-72
2022/10/17 03:16:26;;;;;;;;;2.67;1.67;;;;;23.67;48.21;101218.81;5077191;27;45478;-72
2022/10/17 03:18:51;;;;;;;;;2.00;2.00;;;;;23.67;48.21;101224.97;5077708;27;45393;-72
2022/10/17 03:21:17;;;;;;;;;4.00;2.67;;;;;23.68;47.93;101226.59;5076572;27;48390;-73
2022/10/17 03:23:42;;;;;;;;;2.67;2.00;;;;;23.68;48.00;101237.22;5077404;27;46089;-72
2022/10/17 03:26:09;;;;;;;;;2.00;2.00;;;;;23.68;48.11;101244.38;5077158;27;45342;-72
2022/10/17 03:28:34;;;;;;;;;1.67;1.67;;;;;23.67;48.59;101251.53;5077059;27;45426;-72
2022/10/17 03:31:09;;;;;;;;;1.33;1.33;;;;;23.67;48.09;101243.56;5077280;27;45278;-72
2022/10/17 03:33:36;;;;;;;;;2.00;2.00;;;;;23.57;48.45;101235.84;5076356;27;45746;-72
2022/10/17 03:36:06;;;;;;;;;4.00;3.00;;;;;23.68;48.34;101270.94;5076103;27;45233;-72
2022/10/17 03:38:32;;;;;;;;;2.00;2.00;;;;;23.57;48.29;101296.09;5076934;27;45405;-72
2022/10/17 03:40:58;;;;;;;;;3.00;1.67;;;;;23.66;48.34;101321.56;5077152;27;45303;-72
2022/10/17 03:43:23;;;;;;;;;3.00;1.33;;;;;23.67;48.42;101325.91;5076607;27;46257;-72
2022/10/17 03:45:48;;;;;;;;;3.00;3.00;;;;;23.67;48.30;101341.00;5077136;27;45279;-72
2022/10/17 03:48:14;;;;;;;;;2.00;2.00;;;;;23.64;48.73;101350.16;5076667;27;46979;-72
2022/10/17 03:50:39;;;;;;;;;2.00;2.00;;;;;23.58;48.61;101354.34;5076436;27;45242;-73
2022/10/17 03:53:04;;;;;;;;;2.00;1.67;;;;;23.65;48.32;101357.13;5076562;27;56286;-72
2022/10/17 03:55:29;;;;;;;;;1.00;1.00;;;;;23.68;48.42;101347.97;5076764;27;45401;-72
2022/10/17 03:57:55;;;;;;;;;1.33;1.33;;;;;23.62;48.36;101329.09;5076677;27;45260;-72
2022/10/17 04:00:20;;;;;;;;;2.33;2.00;;;;;23.68;48.34;101342.66;5076612;27;45294;-72
2022/10/17 04:02:45;;;;;;;;;2.00;2.00;;;;;23.68;47.96;101347.97;5076691;27;47097;-72
2022/10/17 04:05:11;;;;;;;;;2.00;2.00;;;;;23.68;48.04;101343.47;5076110;27;45395;-73
2022/10/17 04:07:36;;;;;;;;;2.00;2.00;;;;;23.69;48.64;101354.94;5076009;27;45634;-73
2022/10/17 04:10:02;;;;;;;;;4.00;4.00;;;;;23.68;48.57;101358.59;5062931;27;45244;-73
2022/10/17 04:12:27;;;;;;;;;5.00;3.00;;;;;23.67;48.14;101360.44;5076514;27;46299;-72
2022/10/17 04:14:53;;;;;;;;;3.33;3.00;;;;;23.62;48.51;101374.25;5109081;27;45283;-72
2022/10/17 04:17:18;;;;;;;;;4.00;4.00;;;;;23.69;48.32;101384.16;5076587;27;45417;-73
2022/10/17 04:19:44;;;;;;;;;2.00;2.00;;;;;23.68;48.05;101391.28;5075933;27;45323;-73
2022/10/17 04:22:09;;;;;;;;;2.67;2.67;;;;;23.69;48.34;101390.28;5076263;27;45440;-72
2022/10/17 04:24:34;;;;;;;;;4.00;3.00;;;;;23.70;48.34;101407.91;5075781;27;53483;-73
2022/10/17 04:27:00;;;;;;;;;3.00;2.00;;;;;23.69;48.02;101413.38;5076428;27;45878;-72
2022/10/17 04:29:25;;;;;;;;;1.33;1.33;;;;;23.69;48.71;101416.03;5076475;27;45457;-72
2022/10/17 04:31:51;;;;;;;;;2.00;2.00;;;;;23.69;48.70;101397.44;5075880;27;46963;-73
2022/10/17 04:34:17;;;;;;;;;2.00;2.00;;;;;23.68;48.63;101367.38;5076066;27;45397;-72
2022/10/17 04:36:42;;;;;;;;;3.33;2.00;;;;;23.65;48.17;101365.09;5075870;27;45358;-73
2022/10/17 04:39:07;;;;;;;;;1.67;1.67;;;;;23.69;48.54;101370.88;5076156;27;46780;-72
2022/10/17 04:41:33;;;;;;;;;2.00;2.00;;;;;23.68;48.62;101374.56;5076147;27;47367;-72
2022/10/17 04:43:58;;;;;;;;;4.00;3.00;;;;;23.68;48.59;101377.22;5075812;27;45539;-73
2022/10/17 04:46:24;;;;;;;;;4.00;2.00;;;;;23.68;48.61;101388.63;5075953;27;45428;-73
2022/10/17 04:48:49;;;;;;;;;1.67;1.67;;;;;23.67;48.40;101396.78;5075489;27;45340;-72
2022/10/17 04:51:17;;;;;;;;;3.00;2.00;;;;;23.61;48.42;101382.38;5075748;27;46079;-73
2022/10/17 04:53:44;;;;;;;;;2.00;2.00;;;;;23.68;48.57;101396.59;5061588;27;45390;-73
2022/10/17 04:56:15;;;;;;;;;2.00;2.00;;;;;23.62;48.47;101384.88;5067613;27;45525;-72
2022/10/17 04:58:42;;;;;;;;;2.67;2.00;;;;;23.67;48.31;101384.34;5070599;27;45629;-72
2022/10/17 05:01:13;;;;;;;;;2.33;2.00;;;;;23.63;48.22;101388.34;5075732;27;48015;-72
2022/10/17 05:03:39;;;;;;;;;1.67;1.67;;;;;23.67;48.35;101400.28;5075725;27;45397;-72
2022/10/17 05:06:07;;;;;;;;;2.00;2.00;;;;;23.68;48.53;101401.13;5075897;27;45355;-73
2022/10/17 05:08:33;;;;;;;;;3.33;2.33;;;;;23.67;48.25;101397.63;5067175;27;45437;-72
2022/10/17 05:10:58;;;;;;;;;2.33;2.33;;;;;23.65;48.40;101386.34;5069650;27;46155;-72
2022/10/17 05:13:23;;;;;;;;;1.33;1.00;;;;;23.66;48.63;101350.81;5108663;27;45437;-73
2022/10/17 05:15:49;;;;;;;;;3.33;2.33;;;;;23.66;48.67;101350.81;5075693;27;45457;-74
2022/10/17 05:18:14;;;;;;;;;2.67;2.67;;;;;23.65;48.34;101333.22;5075466;27;45407;-76
2022/10/17 05:20:39;;;;;;;;;2.00;2.00;;;;;23.66;48.55;101329.56;5075443;27;46245;-79
2022/10/17 05:23:05;;;;;;;;;2.00;2.00;;;;;23.67;48.27;101320.59;5075693;27;45272;-74
2022/10/17 05:25:30;;;;;;;;;3.67;1.67;;;;;23.61;48.73;101276.97;5075886;27;45633;-74
2022/10/17 05:27:55;;;;;;;;;3.00;3.00;;;;;23.66;48.26;101297.66;5075336;27;45433;-72
2022/10/17 05:30:21;;;;;;;;;2.00;2.00;;;;;23.68;48.39;101294.84;5075295;27;45362;-74
2022/10/17 05:32:46;;;;;;;;;2.00;2.00;;;;;23.60;48.70;101312.50;5075160;27;45368;-73
2022/10/17 05:35:11;;;;;;;;;4.00;3.00;;;;;23.68;49.01;101347.97;5075428;27;45368;-73
2022/10/17 05:37:37;;;;;;;;;3.33;3.33;;;;;23.68;48.71;101378.00;5108074;27;45352;-73
2022/10/17 05:40:03;;;;;;;;;3.00;3.00;;;;;23.71;49.06;101409.53;5075305;27;46586;-74
2022/10/17 05:42:28;;;;;;;;;3.00;3.00;;;;;23.62;48.93;101413.28;5075261;28;45286;-75
2022/10/17 05:44:54;;;;;;;;;3.00;3.00;;;;;23.72;49.09;101421.81;5075353;27;45428;-74
2022/10/17 05:47:19;;;;;;;;;1.33;1.33;;;;;23.70;48.71;101442.44;5074785;27;45418;-79
2022/10/17 05:49:44;;;;;;;;;2.00;2.00;;;;;23.74;48.71;101457.00;5075312;27;47090;-74
2022/10/17 05:52:10;;;;;;;;;2.00;2.00;;;;;23.76;48.91;101459.47;5075229;27;45318;-75
2022/10/17 05:54:35;;;;;;;;;5.33;4.33;;;;;23.74;48.80;101451.69;5075115;27;45317;-75
2022/10/17 05:57:00;;;;;;;;;4.33;3.00;;;;;23.75;48.74;101452.53;5075619;27;45282;-74
2022/10/17 05:59:26;;;;;;;;;3.33;3.33;;;;;23.74;48.98;101449.03;5078354;27;46283;-76
2022/10/17 06:01:53;;;;;;;;;4.67;1.00;;;;;23.72;48.70;101444.91;5093945;27;45358;-75
2022/10/17 06:04:18;;;;;;;;;4.33;3.00;;;;;23.73;49.03;101444.72;5078811;27;45431;-75
2022/10/17 06:06:43;;;;;;;;;3.00;3.00;;;;;23.74;49.15;101445.56;5078498;27;45453;-75
2022/10/17 06:09:09;;;;;;;;;3.33;2.33;;;;;23.68;48.68;101425.81;5064953;27;45342;-74
2022/10/17 06:11:35;;;;;;;;;3.33;3.00;;;;;23.74;48.65;101442.88;5063237;27;45390;-75
2022/10/17 06:14:01;;;;;;;;;3.00;3.00;;;;;23.74;49.12;101450.88;5078372;27;45737;-75
2022/10/17 06:16:26;;;;;;;;;2.00;2.00;;;;;23.73;49.29;101455.34;5078116;27;45468;-75
2022/10/17 06:18:51;;;;;;;;;2.33;2.33;;;;;23.73;48.95;101449.22;5078193;27;46775;-75
2022/10/17 06:21:21;;;;;;;;;3.33;2.33;;;;;23.72;48.73;101451.06;5077952;27;45259;-74
2022/10/17 06:23:46;;;;;;;;;2.33;2.33;;;;;23.70;48.95;101461.03;5078520;27;45362;-75
2022/10/17 06:26:12;;;;;;;;;3.00;2.00;;;;;23.73;48.62;101462.50;5078324;27;45569;-74
2022/10/17 06:28:37;;;;;;;;;4.00;4.00;;;;;23.72;48.79;101482.94;5077877;27;45612;-74
2022/10/17 06:31:04;;;;;;;;;5.67;2.00;;;;;23.72;48.57;101490.91;5078200;27;45374;-75
2022/10/17 06:33:29;;;;;;;;;3.67;3.00;;;;;23.71;48.70;101491.91;5078123;27;45302;-74
2022/10/17 06:35:55;;;;;;;;;2.67;2.00;;;;;23.72;48.70;101490.06;5077965;27;45400;-74
2022/10/17 06:38:21;;;;;;;;;2.00;2.00;;;;;23.63;49.11;101465.38;5074972;27;47555;-75
2022/10/17 06:40:47;;;;;;;;;2.67;2.67;;;;;23.71;49.04;101470.63;5078138;27;45443;-74
2022/10/17 06:43:12;;;;;;;;;5.33;5.33;;;;;23.71;48.99;101480.44;5078003;27;45350;-74
2022/10/17 06:45:39;;;;;;;;;3.00;3.00;;;;;23.71;48.71;101489.25;5077969;27;45299;-74
2022/10/17 06:48:05;;;;;;;;;2.00;2.00;;;;;23.71;48.93;101491.91;5077711;27;45299;-75
2022/10/17 06:50:30;;;;;;;;;2.67;2.67;;;;;23.72;49.25;101492.72;5077584;27;45302;-75
2022/10/17 06:52:56;;;;;;;;;3.33;3.00;;;;;23.71;48.67;101496.38;5077992;27;45283;-74
2022/10/17 06:55:21;;;;;;;;;2.33;2.33;;;;;23.71;48.83;101499.03;5077708;27;45311;-74
2022/10/17 06:57:47;;;;;;;;;3.00;3.00;;;;;23.67;49.07;101519.81;5077343;27;45424;-75
2022/10/17 07:00:12;;;;;;;;;2.00;2.00;;;;;23.70;48.90;101537.25;5077672;27;45461;-75
2022/10/17 07:02:37;;;;;;;;;3.00;2.00;;;;;23.72;48.63;101554.66;5110562;27;45327;-75
2022/10/17 07:05:03;;;;;;;;;3.67;3.67;;;;;23.72;48.92;101551.19;5077784;27;45572;-75
2022/10/17 07:07:31;;;;;;;;;4.00;4.00;;;;;23.72;49.52;101559.16;5077220;27;45465;-75
2022/10/17 07:09:57;;;;;;;;;3.33;3.33;;;;;23.68;48.98;101558.66;5063012;27;45422;-75
2022/10/17 07:12:23;;;;;;;;;2.00;2.00;;;;;23.72;48.94;101569.78;5076204;27;45342;-75
2022/10/17 07:14:49;;;;;;;;;4.00;3.00;;;;;23.71;49.24;101582.22;5077312;27;45658;-75
2022/10/17 07:17:16;;;;;;;;;2.67;2.67;;;;;23.72;48.67;101589.19;5077199;27;46548;-75
2022/10/17 07:19:42;;;;;;;;;3.00;3.00;;;;;23.70;49.18;101588.56;5077212;27;45455;-74
2022/10/17 07:22:08;;;;;;;;;3.00;3.00;;;;;23.71;48.58;101603.47;5077494;27;45556;-74
2022/10/17 07:24:33;;;;;;;;;4.00;2.33;;;;;23.72;48.89;101606.97;5077376;27;45521;-74
2022/10/17 07:26:58;;;;;;;;;3.33;3.33;;;;;23.72;48.77;101609.63;5076702;27;46147;-75
2022/10/17 07:29:24;;;;;;;;;4.00;4.00;;;;;23.72;48.77;101604.31;5077260;27;45275;-75
2022/10/17 07:31:50;;;;;;;;;2.00;2.00;;;;;23.71;48.86;101598.16;5077254;27;45377;-75
2022/10/17 07:34:16;;;;;;;;;3.00;3.00;;;;;23.71;49.12;101597.34;5077435;27;45355;-75
2022/10/17 07:36:41;;;;;;;;;2.00;2.00;;;;;23.71;49.06;101600.81;5076633;27;47233;-75
2022/10/17 07:39:07;;;;;;;;;3.67;2.33;;;;;23.70;48.82;101609.81;5077142;27;45318;-74
2022/10/17 07:41:32;;;;;;;;;2.00;2.00;;;;;23.70;49.10;101617.78;5076953;27;45402;-75
2022/10/17 07:43:57;;;;;;;;;3.00;3.00;;;;;23.69;48.99;101623.25;5077029;27;45564;-74
2022/10/17 07:46:22;;;;;;;;;3.33;2.00;;;;;23.70;48.61;101633.72;5076792;28;57656;-75
2022/10/17 07:48:48;;;;;;;;;2.00;2.00;;;;;23.71;48.67;101637.19;5076657;27;45356;-74
2022/10/17 07:51:13;;;;;;;;;6.00;3.00;;;;;23.69;48.47;101634.72;5077065;27;45248;-74
2022/10/17 07:53:39;;;;;;;;;2.67;2.67;;;;;23.70;48.66;101644.34;5077071;27;45313;-75
2022/10/17 07:56:06;;;;;;;;;2.00;2.00;;;;;23.70;48.51;101652.31;5076371;27;46525;-75
2022/10/17 07:58:31;;;;;;;;;2.00;2.00;;;;;23.69;48.91;101655.97;5076870;27;45273;-75
2022/10/17 08:01:06;;;;;;;;;4.00;2.00;;;;;23.70;48.86;101662.94;5076825;27;45574;-74
2022/10/17 08:03:31;;;;;;;;;2.00;2.00;;;;;23.70;49.05;101668.25;5076772;27;45343;-74
2022/10/17 08:06:01;;;;;;;;;3.67;2.00;;;;;23.70;48.69;101683.38;5076386;27;45819;-75
2022/10/17 08:08:26;;;;;;;;;3.33;3.33;;;;;23.65;48.78;101672.41;5069079;27;45431;-75
2022/10/17 08:10:53;;;;;;;;;4.00;4.00;;;;;23.70;49.21;101689.50;5069535;28;45347;-75
2022/10/17 08:13:19;;;;;;;;;2.00;2.00;;;;;23.67;48.85;101681.03;5076538;27;45376;-75
2022/10/17 08:15:46;;;;;;;;;2.67;2.33;;;;;23.68;49.00;101688.03;5076670;27;45258;-75
2022/10/17 08:18:13;;;;;;;;;3.00;2.33;;;;;23.71;49.11;101701.78;5076573;27;45457;-74
2022/10/17 08:20:39;;;;;;;;;3.00;3.00;;;;;23.71;48.91;101700.94;5075673;27;45404;-75
2022/10/17 08:23:04;;;;;;;;;4.00;3.00;;;;;23.71;48.84;101712.41;5076425;27;45452;-75
2022/10/17 08:25:29;;;;;;;;;4.67;4.67;;;;;23.71;48.53;101715.06;5075896;27;46204;-75
2022/10/17 08:27:55;;;;;;;;;2.67;2.67;;;;;23.72;48.93;101711.41;5075956;27;45372;-75
2022/10/17 08:30:20;;;;;;;;;3.00;2.00;;;;;23.72;48.86;101699.97;5076480;27;45414;-74
2022/10/17 08:32:45;;;;;;;;;2.33;2.33;;;;;23.59;48.55;101687.22;5076436;27;45451;-75
2022/10/17 08:35:11;;;;;;;;;4.67;4.67;;;;;23.63;48.75;101702.63;5075785;27;55923;-75
2022/10/17 08:37:36;;;;;;;;;3.67;3.00;;;;;23.72;48.69;101714.06;5074790;27;45454;-73
2022/10/17 08:40:02;;;;;;;;;3.67;3.00;;;;;23.69;48.73;101697.63;5075867;27;45462;-75
2022/10/17 08:42:52;;;;;;;;;2.00;2.00;;;;;23.72;48.88;101711.41;5076315;27;45324;-75
2022/10/17 08:45:34;;;;;;;;;3.00;3.00;;;;;23.72;48.81;101719.41;5075823;27;46105;-75
2022/10/17 08:48:03;;;;;;;;;2.00;2.00;;;;;23.72;48.84;101724.72;5075871;27;45492;-75
2022/10/17 08:50:41;;;;;;;;;2.33;2.33;;;;;23.65;49.02;101718.41;5076078;28;45339;-74
2022/10/17 08:53:19;;;;;;;;;3.33;3.00;;;;;23.72;48.84;101730.03;5076114;27;45458;-74
2022/10/17 08:55:47;;;;;;;;;3.00;3.00;;;;;23.72;48.91;101737.16;5075367;27;46105;-74
2022/10/17 08:58:16;;;;;;;;;3.00;2.33;;;;;23.71;48.50;101727.50;5075804;27;45332;-75
2022/10/17 09:00:49;;;;;;;;;4.00;3.00;;;;;23.71;48.62;101736.31;5075904;27;45408;-75
2022/10/17 09:03:36;;;;;;;;;3.67;3.67;;;;;23.72;48.48;101731.84;5065261;27;45408;-75
2022/10/17 09:06:16;;;;;;;;;2.00;2.00;;;;;23.72;48.59;101739.81;5074786;28;46235;-75
2022/10/17 09:09:23;;;;;;;;;2.00;2.00;;;;;23.70;49.02;101745.31;5065532;27;45462;-75
2022/10/17 09:12:10;;;;;;;;;2.33;2.33;;;;;23.71;48.64;101751.44;5062509;28;45405;-75
2022/10/17 09:15:01;;;;;;;;;2.00;2.00;;;;;23.71;48.97;101764.72;5075382;27;45337;-74
2022/10/17 09:17:41;;;;;;;;;2.00;2.00;;;;;23.72;48.60;101784.97;5075362;27;46557;-74
2022/10/17 09:20:18;;;;;;;;;2.00;2.00;;;;;23.70;48.72;101787.81;5075165;27;45332;-76
2022/10/17 09:22:58;;;;;;;;;4.00;4.00;;;;;23.70;48.95;101790.47;5075232;27;45512;-74
2022/10/17 09:25:25;;;;;;;;;2.00;2.00;;;;;23.61;48.91;101779.03;5062229;27;45403;-75
2022/10/17 09:27:58;;;;;;;;;3.00;3.00;;;;;23.70;48.88;101789.63;5075339;28;45428;-74
2022/10/17 09:30:41;;;;;;;;;3.00;3.00;;;;;23.70;48.86;101795.78;5075374;27;45453;-74
2022/10/17 09:33:19;;;;;;;;;6.00;3.67;;;;;23.70;48.73;101794.94;5077240;27;45540;-76
2022/10/17 09:35:45;;;;;;;;;4.00;2.33;;;;;23.71;48.81;101801.91;5079287;27;45393;-75
2022/10/17 09:38:16;;;;;;;;;2.33;2.33;;;;;23.60;49.05;101785.31;5078059;27;47059;-75
2022/10/17 09:40:41;;;;;;;;;3.00;3.00;;;;;23.71;48.39;101809.88;5065471;27;45363;-73
2022/10/17 09:43:11;;;;;;;;;2.33;2.33;;;;;23.63;48.77;101802.75;5078928;27;45467;-75
2022/10/17 09:45:45;;;;;;;;;2.00;2.00;;;;;23.60;48.99;101793.28;5078988;27;45264;-75
2022/10/17 09:48:34;;;;;;;;;5.33;4.00;;;;;23.73;48.77;101818.53;5078510;27;47550;-74
2022/10/17 09:51:00;;;;;;;;;3.00;3.00;;;;;23.73;48.73;101823.84;5066211;27;45394;-75
2022/10/17 09:53:36;;;;;;;;;4.00;4.00;;;;;23.73;48.73;101831.81;5078472;27;45406;-74
2022/10/17 09:56:07;;;;;;;;;5.33;5.33;;;;;23.73;48.34;101834.47;5065888;28;45308;-75
2022/10/17 09:58:43;;;;;;;;;4.33;3.67;;;;;23.60;48.55;101813.72;5078291;27;46986;-74
2022/10/17 10:01:24;;;;;;;;;3.67;3.00;;;;;23.72;48.29;101844.28;5065515;27;45300;-75
2022/10/17 10:04:10;;;;;;;;;5.33;3.33;;;;;23.73;48.41;101837.13;5078520;27;45418;-75
2022/10/17 10:06:36;;;;;;;;;2.67;2.67;;;;;23.73;48.77;101837.94;5078206;27;45554;-74
2022/10/17 10:09:04;;;;;;;;;3.33;3.33;;;;;23.73;48.79;101850.41;5066155;27;46050;-75
2022/10/17 10:11:50;;;;;;;;;2.00;2.00;;;;;23.72;49.07;101856.72;5076669;27;45398;-75
2022/10/17 10:14:35;;;;;;;;;4.00;2.67;;;;;23.72;48.88;101857.56;5078744;27;45286;-75
2022/10/17 10:17:04;;;;;;;;;4.00;4.00;;;;;23.72;48.67;101865.53;5066023;27;45489;-75
2022/10/17 10:19:37;;;;;;;;;4.00;4.00;;;;;23.72;48.56;101870.00;5077734;27;46443;-74
2022/10/17 10:22:24;;;;;;;;;4.00;4.00;;;;;23.67;48.78;101862.53;5077891;27;45505;-73
2022/10/17 10:25:14;;;;;;;;;2.33;2.33;;;;;23.72;48.44;101862.03;5078346;27;45685;-74
2022/10/17 10:27:41;;;;;;;;;2.67;2.67;;;;;23.71;48.97;101863.84;5078247;27;45408;-75
2022/10/17 10:30:23;;;;;;;;;3.67;2.33;;;;;23.70;48.95;101858.72;5077704;27;47377;-75
2022/10/17 10:32:49;;;;;;;;;2.33;2.33;;;;;23.70;48.67;101866.69;5073201;27;45308;-74
2022/10/17 10:35:21;;;;;;;;;2.33;2.33;;;;;23.64;48.98;101857.56;5075482;27;45343;-75
2022/10/17 10:37:54;;;;;;;;;3.00;3.00;;;;;23.69;48.61;101879.13;5077894;27;45361;-74
2022/10/17 10:40:25;;;;;;;;;4.33;4.00;;;;;23.74;48.91;101883.94;5077896;27;46398;-75
2022/10/17 10:42:54;;;;;;;;;3.33;3.33;;;;;23.73;48.59;101893.72;5077249;27;45481;-74
2022/10/17 10:45:28;;;;;;;;;4.00;4.00;;;;;23.74;48.44;101898.06;5077961;27;45390;-75
2022/10/17 10:47:55;;;;;;;;;3.75;3.75;;;;;23.75;49.09;101898.91;5077897;27;45435;-74
2022/10/17 10:50:41;;;;;;;;;3.00;3.00;;;;;23.76;48.38;101908.53;5077642;27;45466;-75
2022/10/17 10:53:32;;;;;;;;;2.33;2.33;;;;;23.77;48.33;101904.88;5077949;27;45442;-75
2022/10/17 10:56:19;;;;;;;;;6.67;2.67;;;;;23.77;48.27;101918.16;5064012;27;45378;-75
2022/10/17 10:59:02;;;;;;;;;2.67;2.67;;;;;23.77;48.32;101923.47;5077281;27;45343;-73
2022/10/17 11:02:01;;;;;;;;;4.33;2.00;;;;;23.78;48.56;101930.47;5077637;27;47367;-74
2022/10/17 11:04:38;;;;;;;;;3.33;3.33;;;;;23.79;48.37;101941.91;5063372;27;45438;-74
2022/10/17 11:07:19;;;;;;;;;3.00;2.00;;;;;23.80;49.00;101946.22;5077801;27;45381;-74
2022/10/17 11:09:50;;;;;;;;;2.00;2.00;;;;;23.73;48.63;101932.78;5061361;28;45359;-75
2022/10/17 11:12:26;;;;;;;;;3.00;3.00;;;;;23.81;48.93;101950.56;5077653;27;45283;-75
2022/10/17 11:15:12;;;;;;;;;2.33;2.33;;;;;23.82;48.62;101965.50;5077478;27;45345;-74
2022/10/17 11:17:44;;;;;;;;;4.33;2.33;;;;;23.78;48.65;101953.53;5077539;27;45279;-74
2022/10/17 11:20:19;;;;;;;;;4.00;4.00;;;;;23.82;48.53;101960.19;5076989;27;45482;-74
2022/10/17 11:22:47;;;;;;;;;3.00;3.00;;;;;23.83;48.47;101960.03;5076994;27;46311;-75
2022/10/17 11:25:29;;;;;;;;;3.33;3.33;;;;;23.82;48.85;101961.00;5076998;27;45440;-75
2022/10/17 11:27:55;;;;;;;;;2.67;2.67;;;;;23.83;48.83;101959.19;5077306;27;45428;-75
2022/10/17 11:30:23;;;;;;;;;4.00;4.00;;;;;23.77;48.35;101950.03;5077377;27;45355;-74
2022/10/17 11:32:57;;;;;;;;;2.67;2.33;;;;;23.83;48.46;101959.19;5076972;27;47087;-75
2022/10/17 11:35:27;;;;;;;;;3.00;3.00;;;;;23.83;48.36;101954.72;5076447;27;45507;-74
2022/10/17 11:38:03;;;;;;;;;4.00;2.00;;;;;23.82;48.38;101953.03;5076993;27;45327;-75
2022/10/17 11:40:33;;;;;;;;;3.00;2.00;;;;;23.82;48.64;101952.19;5077113;27;45403;-75